Hamoir, Belgium
Current Conditions -  °F | °C
As of 11:20 AM on Friday 31 Oct 2014 (Local Time) from EBLG Reporting Station
Clear Clear  
Wind Chill: 17°   Ceiling: Unl
Heat Index: 17°   Visibility: 6mi
Dew Point: 11°   Wind: 14mph
Humidity: 68%   Direction: 180°S
Pressure: 30.21"   Gusts: NA
Location:  50.43°N, 5.53°E
Report Text: EBLG 311020Z 18012KT CAVOK 17/11 Q1023 NOSIG
Loading
Personal Weather Stations






























Interactive Weather Map
Tropical Storm Tracking
New forecast layout! Learn more

10-Day Weather Forecast

Advertisements
Track Severe Weather on mobile